createdAt,value
2023-03-23T15:59:47.568Z,23.20
2023-03-23T16:02:19.759Z,23.00
2023-03-23T16:04:48.048Z,23.00
2023-03-23T16:07:15.303Z,23.10
2023-03-23T16:09:42.556Z,23.10
2023-03-23T16:12:11.435Z,23.10
2023-03-23T16:14:38.901Z,23.00
2023-03-23T16:17:06.167Z,22.80
2023-03-23T16:19:33.270Z,22.60
2023-03-23T16:22:00.567Z,22.80
2023-03-23T16:24:27.688Z,22.80
2023-03-23T16:26:54.750Z,22.70
2023-03-23T16:29:34.319Z,22.50
2023-03-23T16:32:09.133Z,22.50
2023-03-23T16:34:37.056Z,22.40
2023-03-23T16:37:04.567Z,22.40
2023-03-23T16:39:31.706Z,22.40
2023-03-23T16:41:58.791Z,22.30
2023-03-23T16:44:26.060Z,22.40
2023-03-23T16:46:53.126Z,22.20
2023-03-23T16:49:20.247Z,22.10
2023-03-23T16:51:48.169Z,22.00
2023-03-23T16:54:15.225Z,21.70
2023-03-23T16:56:46.655Z,21.70
2023-03-23T16:59:14.016Z,21.60
2023-03-23T17:01:43.183Z,21.50
2023-03-23T17:04:13.455Z,21.40
2023-03-23T17:06:40.916Z,21.30
2023-03-23T17:09:08.037Z,21.30
2023-03-23T17:11:35.177Z,21.20
2023-03-23T17:14:02.348Z,21.10
2023-03-23T17:16:29.599Z,21.00
2023-03-23T17:18:56.663Z,21.00
2023-03-23T17:21:25.826Z,20.90
2023-03-23T17:23:53.752Z,20.80
2023-03-23T17:26:21.080Z,20.70
2023-03-23T17:28:48.285Z,20.60
2023-03-23T17:31:15.626Z,20.70
2023-03-23T17:33:42.747Z,20.70
2023-03-23T17:36:10.106Z,20.60
2023-03-23T17:38:37.426Z,20.60
2023-03-23T17:41:06.383Z,20.50
2023-03-23T17:43:35.021Z,20.50
2023-03-23T17:46:02.347Z,20.30
2023-03-23T17:48:29.495Z,20.40
2023-03-23T17:50:59.864Z,20.30
2023-03-23T17:53:27.065Z,20.30
2023-03-23T17:55:54.621Z,20.10
2023-03-23T17:58:21.925Z,20.00
2023-03-23T18:00:49.025Z,19.90
2023-03-23T18:03:16.309Z,19.90
2023-03-23T18:05:43.932Z,20.00
2023-03-23T18:08:11.352Z,20.00
2023-03-23T18:10:39.343Z,20.10
2023-03-23T18:13:07.711Z,20.00
2023-03-23T18:15:36.996Z,19.80
2023-03-23T18:18:04.924Z,19.80
2023-03-23T18:20:32.412Z,19.80
2023-03-23T18:22:59.781Z,19.70
2023-03-23T18:25:26.905Z,19.60
2023-03-23T18:27:54.267Z,19.60
2023-03-23T18:30:24.515Z,19.60
2023-03-23T18:32:51.601Z,19.60
2023-03-23T18:35:18.719Z,19.60
2023-03-23T18:37:47.814Z,19.60
2023-03-23T18:40:15.707Z,19.50
2023-03-23T18:42:44.842Z,19.50
2023-03-23T18:45:14.824Z,19.40
2023-03-23T18:47:42.000Z,19.20
2023-03-23T18:50:10.045Z,19.10
2023-03-23T18:52:37.490Z,18.90
2023-03-23T18:55:04.839Z,18.80
2023-03-23T18:57:31.970Z,18.80
2023-03-23T18:59:59.102Z,18.90
2023-03-23T19:02:26.297Z,18.90
2023-03-23T19:04:53.515Z,18.80
2023-03-23T19:07:20.667Z,18.70
2023-03-23T19:09:48.059Z,18.60
2023-03-23T19:12:15.824Z,18.60
2023-03-23T19:14:46.101Z,18.50
2023-03-23T19:17:13.237Z,18.50
2023-03-23T19:19:43.722Z,18.40
2023-03-23T19:22:11.523Z,18.40
2023-03-23T19:24:38.837Z,18.50
2023-03-23T19:27:06.102Z,18.30
2023-03-23T19:29:33.227Z,18.30
2023-03-23T19:32:00.445Z,18.20
2023-03-23T19:34:28.158Z,18.10
2023-03-23T19:37:03.211Z,18.10
2023-03-23T19:39:34.110Z,18.10
2023-03-23T19:42:01.628Z,18.10
2023-03-23T19:44:29.043Z,18.00
2023-03-23T19:46:56.693Z,18.00
2023-03-23T19:49:24.673Z,18.00
2023-03-23T19:52:08.027Z,17.90
2023-03-23T19:54:39.686Z,17.90
2023-03-23T19:57:07.901Z,17.80
2023-03-23T19:59:35.340Z,17.80
2023-03-23T20:02:02.758Z,17.70
2023-03-23T20:04:30.082Z,17.70
2023-03-23T20:06:57.282Z,17.60
2023-03-23T20:09:25.337Z,17.60
2023-03-23T20:11:53.565Z,17.50
2023-03-23T20:14:20.984Z,17.50
2023-03-23T20:16:48.220Z,17.50
2023-03-23T20:19:15.304Z,17.40
2023-03-23T20:21:42.396Z,17.40
2023-03-23T20:24:09.443Z,17.30
2023-03-23T20:26:38.917Z,17.20
2023-03-23T20:29:08.476Z,17.20
2023-03-23T20:31:37.577Z,17.20
2023-03-23T20:34:09.895Z,17.20
2023-03-23T20:36:42.151Z,17.10
2023-03-23T20:39:11.382Z,17.10
2023-03-23T20:41:40.319Z,17.10
2023-03-23T20:44:13.581Z,17.00
2023-03-23T20:46:42.186Z,17.00
2023-03-23T20:49:10.122Z,16.90
2023-03-23T20:51:37.375Z,16.90
2023-03-23T20:54:05.972Z,16.90
2023-03-23T20:56:33.740Z,16.80
2023-03-23T20:59:01.674Z,16.80
2023-03-23T21:01:28.888Z,16.80
2023-03-23T21:03:57.072Z,16.80
2023-03-23T21:06:30.939Z,16.80
2023-03-23T21:08:58.125Z,16.70
2023-03-23T21:11:26.827Z,16.70
2023-03-23T21:13:54.260Z,16.70
2023-03-23T21:16:23.649Z,16.60
2023-03-23T21:18:51.073Z,16.60
2023-03-23T21:21:18.536Z,16.60
2023-03-23T21:23:46.753Z,16.60
2023-03-23T21:26:16.747Z,16.60
2023-03-23T21:28:44.861Z,16.60
2023-03-23T21:31:12.638Z,16.50
2023-03-23T21:33:39.779Z,16.70
2023-03-23T21:36:07.590Z,16.60
2023-03-23T21:38:34.742Z,16.60
2023-03-23T21:41:06.875Z,16.50
2023-03-23T21:43:34.398Z,16.40
2023-03-23T21:46:04.087Z,16.30
2023-03-23T21:48:32.914Z,16.30
2023-03-23T21:51:07.262Z,16.30
2023-03-23T21:53:36.770Z,16.30
2023-03-23T21:56:05.480Z,16.50
2023-03-23T21:58:33.004Z,16.30
2023-03-23T22:01:02.159Z,16.30
2023-03-23T22:03:32.883Z,16.30
2023-03-23T22:06:05.417Z,16.30
2023-03-23T22:08:33.039Z,16.40
2023-03-23T22:11:01.855Z,16.40
2023-03-23T22:13:30.424Z,16.40
2023-03-23T22:15:59.336Z,16.40
2023-03-23T22:18:27.029Z,16.50
2023-03-23T22:20:54.187Z,16.40
2023-03-23T22:23:21.308Z,16.40
2023-03-23T22:25:48.432Z,16.40
2023-03-23T22:28:15.625Z,16.40
2023-03-23T22:30:42.718Z,16.50
2023-03-23T22:33:09.860Z,16.90
2023-03-23T22:35:37.243Z,16.90
2023-03-23T22:38:04.741Z,16.40
2023-03-23T22:40:31.973Z,16.20
2023-03-23T22:42:59.274Z,16.20
2023-03-23T22:45:27.814Z,16.30
2023-03-23T22:47:55.239Z,16.10
2023-03-23T22:50:24.138Z,16.10
2023-03-23T22:52:51.317Z,16.20
2023-03-23T22:55:18.493Z,16.00
2023-03-23T22:57:46.012Z,16.10
2023-03-23T23:00:17.946Z,16.10
2023-03-23T23:02:45.394Z,16.10
2023-03-23T23:05:13.181Z,16.10
2023-03-23T23:07:40.579Z,15.80
2023-03-23T23:10:08.199Z,15.80
2023-03-23T23:12:35.491Z,15.70
2023-03-23T23:15:04.421Z,15.70
2023-03-23T23:17:32.135Z,15.90
2023-03-23T23:19:59.942Z,15.60
2023-03-23T23:22:30.478Z,15.80
2023-03-23T23:24:57.670Z,15.80
2023-03-23T23:27:24.828Z,15.90
2023-03-23T23:29:54.323Z,15.80
2023-03-23T23:32:21.521Z,15.80
2023-03-23T23:34:48.622Z,15.80
2023-03-23T23:37:15.773Z,15.70
2023-03-23T23:39:43.231Z,15.80
2023-03-23T23:42:10.331Z,15.80
2023-03-23T23:44:38.304Z,15.60
2023-03-23T23:47:05.570Z,15.60
2023-03-23T23:49:34.284Z,15.60
2023-03-23T23:52:01.578Z,15.70
2023-03-23T23:54:32.090Z,15.60
2023-03-23T23:56:59.978Z,15.50
2023-03-23T23:59:28.796Z,15.50
